Seward, AK (99664)

8:18 PM AKDT on July 30, 2016 (GMT -0800)
Oak Street Forest Acres Seward Alaska | | Change Station

Elev 144 ft 60.14 °N, 149.44 °W | Updated 54 seconds ago

Overcast
Overcast
58.6 °F
Feels Like 58.6 °F
N
5.0
Wind Variable Wind from South

Today
High -- | Low -- °F
--% Chance of Precip.
Yesterday
High -- | Low -- °F
Precip. -- in
Pressure 30.06 in
Visibility 10.0 miles
Clouds Mostly Cloudy 3300 ft
Overcast 4900 ft
Dew Point 54 °F
Humidity 85%
Rainfall 0.07 in
Snow Depth Not available.
5:34 AM 10:31 PM
Waning Crescent, 9% visible
METAR PAWD 310353Z AUTO 17008KT 10SM BKN033 OVC049 14/12 A3006 RMK AO2 SLP179 T01440122 TSNO $
Pressure 30.06 in
Visibility 10.0 miles
Clouds Mostly Cloudy 3300 ft
Overcast 4900 ft
Dew Point 54 °F
Humidity 85%
Rainfall 0.07 in
Snow Depth Not available.
5:34 AM 10:31 PM
Waning Crescent, 9% visible
METAR PAWD 310353Z AUTO 17008KT 10SM BKN033 OVC049 14/12 A3006 RMK AO2 SLP179 T01440122 TSNO $

10-Day Weather Forecast

Almanac

Astronomy

Jul. 30, 2016 Rise Set
Actual Time
Civil Twilight
Nautical Twilight
Astronomical Twilight
Moon
Length of Visible Light
Length of Day
Tomorrow will be .
, % of the Moon is Illuminated

Today's Extremes

State Highs State Lows

Community

WunderPhotos

Upload Photos

1,928,751 photos uploaded!

WunderBlog® & News

Nearby

Air Quality

  Air Quality AQ Index Pollutant
Not available.

Snow Depth

Station Depth Elevation

Earthquake Activity

City Distance Mag. Time & Date
Minimum magnitude displayed is 2.5.

Coastal Water Temperatures

Place Temperature

Stations

Nearby Weather Stations

Station Location Temp. Windchill Dew Point Humidity Wind Precip. Elev Updated Type
                   

Watches & Warnings

There are currently no watches in effect.